Weather observations for the past three days for
Sand Point
| Date | Time (akdt) | Wind (mph) | Vis. (mi.) | Weather | Sky Cond. | Temperature (ºF) | Relative Humidity | Wind Chill (°F) | Heat Index (°F) | Pressure | Precipitation (in) | ||||||
|---|---|---|---|---|---|---|---|---|---|---|---|---|---|---|---|---|---|
| Air | Dwpt | 6 hour | altimeter (in) | sea level (mb) | 1 hr | 3 hr | 6 hr | ||||||||||
| Max. | Min. | ||||||||||||||||
| 08 | 17:56 | N 13 | 10.00 | A Few Clouds | FEW030 FEW038 | 42.1 | 30.9 | 65% | 36 | 29.63 | 1003.6 | ||||||
| 08 | 16:56 | N 13 | 10.00 | Partly Cloudy | FEW030 SCT038 | 42.1 | 33.1 | 71% | 36 | 29.65 | 1004.1 | ||||||
| 08 | 15:56 | NE 12 | 10.00 | Mostly Cloudy | FEW030 SCT038 BKN045 | 43 | 33.1 | 43 | 37.9 | 68% | 37 | 29.66 | 1004.6 | ||||
| 08 | 14:56 | NE 13 | 10.00 | Partly Cloudy | FEW033 SCT040 | 42.1 | 33.1 | 71% | 36 | 29.67 | 1005.0 | ||||||
| 08 | 13:56 | NE 12 | 10.00 | Partly Cloudy | FEW037 SCT050 | 41 | 32 | 70% | 35 | 29.69 | 1005.4 | ||||||
| 08 | 12:56 | N 10 | 10.00 | Partly Cloudy | FEW035 SCT060 | 41 | 32 | 70% | 35 | 29.7 | 1006.0 | ||||||
| 08 | 11:56 | N 12 | 10.00 | Partly Cloudy | FEW030 SCT037 | 39.9 | 30 | 68% | 34 | 29.72 | 1006.6 | ||||||
| 08 | 10:56 | N 9 | 10.00 | Partly Cloudy | FEW037 SCT055 | 39.9 | 30 | 68% | 34 | 29.73 | 1007.0 | ||||||
| 08 | 09:56 | N 9 | 10.00 | A Few Clouds | FEW028 FEW050 | 37.9 | 30 | 37.9 | 34 | 73% | 32 | 29.74 | 1007.3 | ||||
| 08 | 08:56 | N 12 | 10.00 | A Few Clouds | FEW021 FEW045 | 37 | 30 | 76% | 30 | 29.75 | 1007.6 | ||||||
| 08 | 07:56 | N 9 | 10.00 | A Few Clouds | FEW021 FEW045 | 34 | 30 | 85% | 27 | 29.76 | 1007.9 | ||||||
| 08 | 06:56 | N 9 | 10.00 | Partly Cloudy | FEW022 SCT050 | 34 | 30 | 85% | 27 | 29.76 | 1008.1 | ||||||
| 08 | 05:56 | N 9 | 10.00 | Mostly Cloudy | BKN029 | 35.1 | 30 | 82% | 29 | 29.78 | 1008.7 | ||||||
| 08 | 04:56 | N 9 | 10.00 | Overcast | FEW016 OVC027 | 36 | 30.9 | 82% | 30 | 29.79 | 1009.1 | ||||||
| 08 | 03:56 | N 9 | 10.00 | Overcast | BKN020 OVC028 | 36 | 30.9 | 37.9 | 35.1 | 82% | 30 | 29.81 | 1009.6 | ||||
| 08 | 02:56 | N 8 | 10.00 | Overcast | BKN016 OVC024 | 37 | 32 | 82% | 32 | 29.83 | 1010.2 | ||||||
| 08 | 01:56 | Calm | 10.00 | Overcast | OVC020 | 36 | 30.9 | 82% | 29.83 | 1010.5 | |||||||
| 08 | 00:56 | Calm | 10.00 | Overcast | SCT020 OVC030 | 35.1 | 30 | 82% | 29.85 | 1011.0 | |||||||
| 07 | 23:56 | Calm | 10.00 | Overcast | OVC030 | 37 | 30 | 76% | 29.86 | 1011.4 | |||||||
| 07 | 22:56 | Calm | 10.00 | Overcast | OVC024 | 37 | 28.9 | 73% | 29.87 | 1011.8 | |||||||
| 07 | 21:56 | Vrbl 3 | 10.00 | Overcast | OVC022 | 37.9 | 28.9 | 41 | 37.9 | 70% | 29.87 | 1011.8 | |||||
| 07 | 20:56 | NE 3 | 10.00 | A Few Clouds | FEW024 | 39 | 28.9 | 67% | 29.88 | 1011.9 | |||||||
| 07 | 19:56 | N 6 | 10.00 | Fair | CLR | 39 | 28.9 | 67% | 35 | 29.88 | 1011.9 | ||||||
| 07 | 18:56 | Vrbl 6 | 10.00 | A Few Clouds | FEW048 FEW060 | 39.9 | 28.9 | 65% | 36 | 29.89 | 1012.3 | ||||||
| 07 | 17:56 | N 9 | 10.00 | A Few Clouds | FEW048 FEW060 | 41 | 28.9 | 62% | 36 | 29.9 | 1012.8 | ||||||
| 07 | 16:56 | NE 9 | 10.00 | A Few Clouds | FEW035 FEW060 | 41 | 28 | 60% | 36 | 29.92 | 1013.5 | ||||||
| 07 | 15:56 | Vrbl 5 | 10.00 | Mostly Cloudy | FEW027 SCT032 BKN045 | 39 | 27 | 42.1 | 37 | 62% | 36 | 29.95 | 1014.3 | ||||
| 07 | 14:56 | N 6 | 10.00 | Mostly Cloudy | FEW027 SCT032 BKN040 | 39.9 | 27 | 60% | 36 | 29.96 | 1014.7 | ||||||
| 07 | 13:56 | Vrbl 7 | 10.00 | Mostly Cloudy | FEW026 SCT032 BKN040 | 39.9 | 28 | 63% | 36 | 29.97 | 1015.1 | ||||||
| 07 | 12:56 | NE 10 | 10.00 | Mostly Cloudy | FEW024 SCT029 BKN035 | 37.9 | 28 | 68% | 32 | 29.98 | 1015.3 | ||||||
| 07 | 11:56 | NE 9 | 10.00 | Mostly Cloudy | SCT025 BKN032 | 39 | 28 | 65% | 33 | 29.98 | 1015.5 | ||||||
| 07 | 10:56 | N 9 | 10.00 | Mostly Cloudy | SCT023 BKN030 | 37 | 27 | 67% | 31 | 29.99 | 1015.8 | ||||||
| 07 | 09:56 | Vrbl 7 | 10.00 | Mostly Cloudy | SCT022 BKN029 | 37 | 28.9 | 37 | 30.9 | 73% | 32 | 30 | 1016.1 | ||||
| 07 | 08:56 | Calm | 10.00 | Mostly Cloudy | SCT020 BKN025 | 36 | 28.9 | 76% | 30.01 | 1016.5 | |||||||
| 07 | 07:56 | Calm | 10.00 | Mostly Cloudy | SCT020 BKN027 | 34 | 28 | 79% | 30.02 | 1016.7 | |||||||
| 07 | 06:56 | Calm | 10.00 | Mostly Cloudy | SCT019 BKN024 | 33.1 | 28 | 82% | 30.02 | 1016.9 | |||||||
| 07 | 05:56 | E 3 | 10.00 | Overcast | OVC019 | 33.1 | 28 | 82% | 30.03 | 1017.2 | |||||||
| 07 | 04:56 | Calm | 10.00 | Overcast | OVC019 | 32 | 28 | 85% | 30.04 | 1017.4 | |||||||
| 07 | 03:56 | Calm | 10.00 | A Few Clouds | FEW021 | 30.9 | 28 | 37 | 30 | 89% | 30.05 | 1017.8 | |||||
| 07 | 02:56 | Calm | 10.00 | Fair | CLR | 30 | 28 | 92% | 30.06 | 1018.3 | |||||||
| 07 | 01:56 | Calm | 10.00 | Fair | CLR | 30.9 | 28 | 89% | 30.07 | 1018.5 | |||||||
| 07 | 00:56 | E 3 | 10.00 | Fair | CLR | 32 | 28 | 85% | 30.08 | 1018.8 | |||||||
| 06 | 23:56 | E 6 | 10.00 | Fair | CLR | 32 | 27 | 82% | 27 | 30.07 | 1018.6 | ||||||
| 06 | 22:56 | E 5 | 10.00 | Fair | CLR | 34 | 27 | 76% | 30 | 30.08 | 1018.7 | ||||||
| 06 | 21:56 | Vrbl 5 | 10.00 | Fair | CLR | 37 | 27 | 41 | 37 | 67% | 34 | 30.07 | 1018.6 | ||||
| 06 | 20:56 | S 9 | 10.00 | Fair | CLR | 37.9 | 28 | 68% | 32 | 30.07 | 1018.6 | ||||||
| 06 | 19:56 | S 10 | 10.00 | Fair | CLR | 39 | 28.9 | 67% | 33 | 30.07 | 1018.4 | ||||||
| 06 | 18:56 | S 12 | 10.00 | A Few Clouds | FEW100 FEW120 | 39.9 | 28 | 63% | 34 | 30.07 | 1018.3 | ||||||
| 06 | 17:56 | S 10 | 10.00 | A Few Clouds | FEW100 FEW120 | 41 | 27 | 57% | 35 | 30.07 | 1018.6 | ||||||
| 06 | 16:56 | S 12 | 10.00 | A Few Clouds | FEW100 FEW120 | 39.9 | 25 | 55% | 34 | 30.08 | 1018.9 | ||||||
| 06 | 15:56 | S 14 | 10.00 | A Few Clouds | FEW100 FEW120 | 39 | 26.1 | 41 | 33.1 | 60% | 32 | 30.09 | 1019.1 | ||||
| 06 | 14:56 | S 13 | 10.00 | Partly Cloudy | SCT100 SCT120 | 39 | 27 | 62% | 32 | 30.1 | 1019.5 | ||||||
| 06 | 13:56 | S 10 | 10.00 | Partly Cloudy | SCT100 SCT120 | 39 | 26.1 | 60% | 33 | 30.11 | 1019.8 | ||||||
| 06 | 12:56 | Vrbl 3 | 10.00 | Partly Cloudy | SCT100 SCT120 | 39 | 24.1 | 55% | 30.11 | 1019.9 | |||||||
| 06 | 11:56 | N 5 | 10.00 | A Few Clouds | FEW100 FEW120 | 36 | 21.9 | 57% | 33 | 30.11 | 1019.7 | ||||||
| 06 | 10:56 | N 7 | 10.00 | A Few Clouds | FEW100 FEW120 | 35.1 | 24.1 | 64% | 30 | 30.11 | 1019.8 | ||||||
| 06 | 09:56 | NW 5 | 10.00 | A Few Clouds | FEW100 FEW120 | 34 | 23 | 34 | 27 | 64% | 30 | 30.11 | 1020.0 | ||||
| 06 | 08:56 | W 8 | 10.00 | A Few Clouds | FEW080 FEW110 | 32 | 25 | 75% | 25 | 30.12 | 1020.0 | ||||||
| 06 | 07:56 | Calm | 10.00 | A Few Clouds | FEW080 FEW110 | 28 | 23 | 81% | 30.11 | 1019.8 | |||||||
| 06 | 06:56 | NW 5 | 10.00 | Fair | CLR | 30 | 24.1 | 79% | 26 | 30.1 | 1019.6 | ||||||
| 06 | 05:56 | N 7 | 10.00 | Fair | CLR | 30.9 | 24.1 | 76% | 25 | 30.1 | 1019.4 | ||||||
| 06 | 04:56 | N 13 | 10.00 | Fair | CLR | 32 | 25 | 75% | 23 | 30.09 | 1019.1 | ||||||
| 06 | 03:56 | NW 14 | 10.00 | Fair | CLR | 30.9 | 25 | 34 | 30 | 79% | 21 | 30.09 | 1019.3 | ||||
| 06 | 02:56 | N 10 | 10.00 | Fair | CLR | 30.9 | 25 | 79% | 23 | 30.11 | 1019.9 | ||||||
| 06 | 01:56 | N 10 | 10.00 | Fair | CLR | 30.9 | 25 | 79% | 23 | 30.12 | 1020.3 | ||||||
| 06 | 00:56 | NW 15 | 10.00 | Fair | CLR | 32 | 26.1 | 79% | 22 | 30.11 | 1020.0 | ||||||
| 05 | 23:56 | NW 6 | 10.00 | Partly Cloudy | SCT022 | 32 | 26.1 | 79% | 27 | 30.12 | 1020.0 | ||||||
| 05 | 22:56 | NW 15 G 21 | 10.00 | Partly Cloudy | SCT019 | 33.1 | 26.1 | 75% | 24 | 30.1 | 1019.5 | ||||||
| 05 | 21:56 | NW 24 | 10.00 | Fair and Breezy | CLR | 34 | 27 | 39.9 | 34 | 76% | 22 | 30.07 | 1018.4 | ||||
| 05 | 20:56 | N 20 | 10.00 | A Few Clouds | FEW018 | 36 | 28 | 73% | 26 | 30.07 | 1018.4 | ||||||
| 05 | 19:56 | N 15 | 10.00 | Partly Cloudy | SCT019 | 37 | 28.9 | 73% | 29 | 30.06 | 1018.1 | ||||||
| 05 | 18:56 | NW 22 | 10.00 | A Few Clouds and Breezy | FEW028 FEW080 | 37.9 | 28 | 68% | 28 | 30.03 | 1017.1 | ||||||
| Date | Time (akdt) | Wind (mph) | Vis. (mi.) | Weather | Sky Cond. | Air | Dwpt | Max. | Min. | Relative Humidity | Wind Chill (°F) | Heat Index (°F) | altimeter (in) | sea level (mb) | 1 hr | 3 hr | 6 hr |
| 6 hour | |||||||||||||||||
| Temperature (ºF) | Pressure | Precipitation (in) | |||||||||||||||